sensor_id;sensor_type;location;lat;lon;timestamp;pressure;altitude;pressure_sealevel;temperature;humidity
14393;BME280;7281;42.678;23.372;2023-03-13T00:01:45;95353.00;;;6.97;35.72
14393;BME280;7281;42.678;23.372;2023-03-13T00:04:13;95353.53;;;7.29;34.48
14393;BME280;7281;42.678;23.372;2023-03-13T00:06:39;95352.69;;;7.05;34.93
14393;BME280;7281;42.678;23.372;2023-03-13T00:09:08;95349.59;;;6.96;34.91
14393;BME280;7281;42.678;23.372;2023-03-13T00:11:36;95357.03;;;7.22;35.03
14393;BME280;7281;42.678;23.372;2023-03-13T00:14:03;95355.16;;;7.00;35.12
14393;BME280;7281;42.678;23.372;2023-03-13T00:16:30;95351.97;;;7.28;34.54
14393;BME280;7281;42.678;23.372;2023-03-13T00:18:57;95361.19;;;7.00;35.01
14393;BME280;7281;42.678;23.372;2023-03-13T00:21:25;95356.09;;;6.76;35.45
14393;BME280;7281;42.678;23.372;2023-03-13T00:23:52;95345.28;;;6.90;34.87
14393;BME280;7281;42.678;23.372;2023-03-13T00:26:20;95365.56;;;6.70;35.71
14393;BME280;7281;42.678;23.372;2023-03-13T00:28:47;95366.44;;;6.64;36.13
14393;BME280;7281;42.678;23.372;2023-03-13T00:31:16;95373.06;;;7.08;35.43
14393;BME280;7281;42.678;23.372;2023-03-13T00:33:46;95369.06;;;7.24;34.65
14393;BME280;7281;42.678;23.372;2023-03-13T00:36:14;95367.16;;;7.01;35.01
14393;BME280;7281;42.678;23.372;2023-03-13T00:38:41;95367.19;;;6.71;35.94
14393;BME280;7281;42.678;23.372;2023-03-13T00:41:11;95367.44;;;6.81;35.68
14393;BME280;7281;42.678;23.372;2023-03-13T00:43:39;95360.97;;;7.13;34.65
14393;BME280;7281;42.678;23.372;2023-03-13T00:46:08;95366.91;;;7.21;35.29
14393;BME280;7281;42.678;23.372;2023-03-13T00:48:35;95366.97;;;7.14;34.74
14393;BME280;7281;42.678;23.372;2023-03-13T00:51:02;95370.91;;;7.05;35.04
14393;BME280;7281;42.678;23.372;2023-03-13T00:53:29;95369.41;;;6.97;35.60
14393;BME280;7281;42.678;23.372;2023-03-13T00:55:57;95357.81;;;7.11;34.78
14393;BME280;7281;42.678;23.372;2023-03-13T00:58:26;95362.13;;;6.58;35.62
14393;BME280;7281;42.678;23.372;2023-03-13T01:00:53;95365.22;;;6.96;35.47
14393;BME280;7281;42.678;23.372;2023-03-13T01:03:20;95370.50;;;6.60;35.52
14393;BME280;7281;42.678;23.372;2023-03-13T01:05:56;95366.06;;;6.31;35.77
14393;BME280;7281;42.678;23.372;2023-03-13T01:08:24;95366.28;;;6.77;35.60
14393;BME280;7281;42.678;23.372;2023-03-13T01:11:01;95368.00;;;6.83;35.33
14393;BME280;7281;42.678;23.372;2023-03-13T01:13:29;95373.66;;;6.80;35.92
14393;BME280;7281;42.678;23.372;2023-03-13T01:16:17;95370.72;;;6.77;35.32
14393;BME280;7281;42.678;23.372;2023-03-13T01:18:46;95368.25;;;7.11;34.77
14393;BME280;7281;42.678;23.372;2023-03-13T01:21:14;95363.44;;;7.08;34.98
14393;BME280;7281;42.678;23.372;2023-03-13T01:23:41;95361.25;;;6.94;34.88
14393;BME280;7281;42.678;23.372;2023-03-13T01:26:08;95357.38;;;6.85;35.67
14393;BME280;7281;42.678;23.372;2023-03-13T01:28:35;95360.19;;;7.13;34.58
14393;BME280;7281;42.678;23.372;2023-03-13T01:33:59;95374.31;;;7.05;35.44
14393;BME280;7281;42.678;23.372;2023-03-13T01:36:27;95373.44;;;7.11;35.38
14393;BME280;7281;42.678;23.372;2023-03-13T01:39:11;95382.63;;;7.14;35.22
14393;BME280;7281;42.678;23.372;2023-03-13T01:41:38;95386.91;;;7.08;35.26
14393;BME280;7281;42.678;23.372;2023-03-13T01:44:05;95388.88;;;7.25;35.21
14393;BME280;7281;42.678;23.372;2023-03-13T01:46:34;95385.84;;;7.28;35.92
14393;BME280;7281;42.678;23.372;2023-03-13T01:49:32;95392.50;;;7.24;36.19
14393;BME280;7281;42.678;23.372;2023-03-13T01:54:56;95397.94;;;6.92;36.17
14393;BME280;7281;42.678;23.372;2023-03-13T01:57:28;95391.28;;;6.96;36.48
14393;BME280;7281;42.678;23.372;2023-03-13T02:00:00;95389.31;;;6.92;36.31
14393;BME280;7281;42.678;23.372;2023-03-13T02:02:39;95394.78;;;6.72;37.53
14393;BME280;7281;42.678;23.372;2023-03-13T02:05:07;95393.22;;;6.71;37.30
14393;BME280;7281;42.678;23.372;2023-03-13T02:07:38;95396.38;;;6.73;37.00
14393;BME280;7281;42.678;23.372;2023-03-13T02:10:06;95392.91;;;6.61;37.85
14393;BME280;7281;42.678;23.372;2023-03-13T02:12:35;95396.56;;;6.60;37.20
14393;BME280;7281;42.678;23.372;2023-03-13T02:15:07;95392.72;;;6.45;38.31
14393;BME280;7281;42.678;23.372;2023-03-13T02:17:34;95403.47;;;6.48;38.40
14393;BME280;7281;42.678;23.372;2023-03-13T02:20:02;95403.06;;;6.51;38.04
14393;BME280;7281;42.678;23.372;2023-03-13T02:28:38;95403.63;;;6.53;38.70
14393;BME280;7281;42.678;23.372;2023-03-13T02:30:41;95416.50;;;6.66;37.76
14393;BME280;7281;42.678;23.372;2023-03-13T02:33:10;95426.06;;;6.54;38.14
14393;BME280;7281;42.678;23.372;2023-03-13T02:35:37;95422.41;;;6.37;39.00
14393;BME280;7281;42.678;23.372;2023-03-13T02:38:09;95429.47;;;6.55;38.25
14393;BME280;7281;42.678;23.372;2023-03-13T02:40:37;95435.88;;;6.52;38.65
14393;BME280;7281;42.678;23.372;2023-03-13T02:43:07;95449.19;;;6.44;38.34
14393;BME280;7281;42.678;23.372;2023-03-13T02:45:34;95452.34;;;6.46;38.50
14393;BME280;7281;42.678;23.372;2023-03-13T02:48:01;95447.34;;;6.27;38.86
14393;BME280;7281;42.678;23.372;2023-03-13T02:50:28;95461.03;;;6.22;39.38
14393;BME280;7281;42.678;23.372;2023-03-13T02:53:00;95468.53;;;6.30;38.84
14393;BME280;7281;42.678;23.372;2023-03-13T02:55:30;95457.50;;;6.10;39.43
14393;BME280;7281;42.678;23.372;2023-03-13T02:57:58;95461.81;;;6.23;39.55
14393;BME280;7281;42.678;23.372;2023-03-13T03:00:27;95466.94;;;6.11;39.48
14393;BME280;7281;42.678;23.372;2023-03-13T03:02:54;95468.66;;;6.17;39.31
14393;BME280;7281;42.678;23.372;2023-03-13T03:05:21;95458.00;;;6.25;39.47
14393;BME280;7281;42.678;23.372;2023-03-13T03:07:48;95458.56;;;6.27;39.49
14393;BME280;7281;42.678;23.372;2023-03-13T03:10:16;95465.06;;;6.18;38.97
14393;BME280;7281;42.678;23.372;2023-03-13T03:12:43;95456.34;;;6.06;40.13
14393;BME280;7281;42.678;23.372;2023-03-13T03:15:10;95465.63;;;6.02;39.44
14393;BME280;7281;42.678;23.372;2023-03-13T03:17:42;95470.16;;;5.82;40.17
14393;BME280;7281;42.678;23.372;2023-03-13T03:20:09;95481.72;;;5.86;40.29
14393;BME280;7281;42.678;23.372;2023-03-13T03:22:40;95486.09;;;5.92;39.96
14393;BME280;7281;42.678;23.372;2023-03-13T03:25:07;95486.09;;;5.92;40.15
14393;BME280;7281;42.678;23.372;2023-03-13T03:27:35;95500.50;;;5.88;39.85
14393;BME280;7281;42.678;23.372;2023-03-13T03:30:05;95505.19;;;6.04;40.08
14393;BME280;7281;42.678;23.372;2023-03-13T03:32:34;95507.25;;;5.95;39.91
14393;BME280;7281;42.678;23.372;2023-03-13T03:35:00;95509.75;;;5.84;40.39
14393;BME280;7281;42.678;23.372;2023-03-13T03:37:28;95511.28;;;5.91;40.21
14393;BME280;7281;42.678;23.372;2023-03-13T03:39:56;95508.97;;;5.83;39.80
14393;BME280;7281;42.678;23.372;2023-03-13T03:42:23;95518.22;;;5.73;40.44
14393;BME280;7281;42.678;23.372;2023-03-13T03:44:50;95513.31;;;5.52;40.44
14393;BME280;7281;42.678;23.372;2023-03-13T03:47:17;95525.22;;;5.72;39.96
14393;BME280;7281;42.678;23.372;2023-03-13T03:49:46;95538.16;;;5.79;40.07
14393;BME280;7281;42.678;23.372;2023-03-13T03:52:14;95543.34;;;5.79;40.31
14393;BME280;7281;42.678;23.372;2023-03-13T03:54:42;95545.03;;;5.67;40.31
14393;BME280;7281;42.678;23.372;2023-03-13T03:57:09;95538.97;;;5.79;40.31
14393;BME280;7281;42.678;23.372;2023-03-13T03:59:37;95538.22;;;5.66;40.49
14393;BME280;7281;42.678;23.372;2023-03-13T04:02:07;95550.66;;;5.64;39.75
14393;BME280;7281;42.678;23.372;2023-03-13T04:04:35;95551.44;;;5.64;40.22
14393;BME280;7281;42.678;23.372;2023-03-13T04:07:10;95550.72;;;5.51;40.81
14393;BME280;7281;42.678;23.372;2023-03-13T04:09:38;95551.09;;;5.54;40.57
14393;BME280;7281;42.678;23.372;2023-03-13T04:12:07;95563.84;;;5.62;40.29
14393;BME280;7281;42.678;23.372;2023-03-13T04:14:39;95572.22;;;5.71;39.92
14393;BME280;7281;42.678;23.372;2023-03-13T04:17:08;95573.84;;;5.65;40.34
14393;BME280;7281;42.678;23.372;2023-03-13T04:19:36;95575.47;;;5.60;40.23
14393;BME280;7281;42.678;23.372;2023-03-13T04:22:02;95580.03;;;5.20;41.21
14393;BME280;7281;42.678;23.372;2023-03-13T04:24:31;95584.19;;;5.34;41.21
14393;BME280;7281;42.678;23.372;2023-03-13T04:26:57;95574.31;;;5.49;40.77
14393;BME280;7281;42.678;23.372;2023-03-13T04:29:25;95583.50;;;5.52;40.89
14393;BME280;7281;42.678;23.372;2023-03-13T04:31:59;95577.31;;;5.53;40.36
14393;BME280;7281;42.678;23.372;2023-03-13T04:34:36;95590.28;;;5.59;40.45
14393;BME280;7281;42.678;23.372;2023-03-13T04:37:35;95591.06;;;5.60;40.25
14393;BME280;7281;42.678;23.372;2023-03-13T04:40:20;95608.44;;;5.02;41.61
14393;BME280;7281;42.678;23.372;2023-03-13T04:43:02;95607.97;;;5.38;40.85
14393;BME280;7281;42.678;23.372;2023-03-13T04:45:47;95613.97;;;5.38;41.22
14393;BME280;7281;42.678;23.372;2023-03-13T04:48:34;95616.66;;;5.63;40.21
14393;BME280;7281;42.678;23.372;2023-03-13T04:51:20;95614.28;;;5.55;40.67
14393;BME280;7281;42.678;23.372;2023-03-13T04:54:09;95616.81;;;5.68;40.79
14393;BME280;7281;42.678;23.372;2023-03-13T04:56:42;95621.88;;;5.56;40.72
14393;BME280;7281;42.678;23.372;2023-03-13T04:59:21;95615.78;;;5.25;40.88
14393;BME280;7281;42.678;23.372;2023-03-13T05:02:03;95616.50;;;5.51;41.17
14393;BME280;7281;42.678;23.372;2023-03-13T05:04:57;95627.22;;;5.74;40.23
14393;BME280;7281;42.678;23.372;2023-03-13T05:07:43;95627.78;;;5.83;40.43
14393;BME280;7281;42.678;23.372;2023-03-13T05:10:13;95625.22;;;5.70;40.38
14393;BME280;7281;42.678;23.372;2023-03-13T05:12:44;95620.66;;;5.59;40.95
14393;BME280;7281;42.678;23.372;2023-03-13T05:15:34;95627.13;;;5.37;40.88
14393;BME280;7281;42.678;23.372;2023-03-13T05:18:19;95625.22;;;5.70;40.97
14393;BME280;7281;42.678;23.372;2023-03-13T05:20:59;95632.41;;;5.68;40.90
14393;BME280;7281;42.678;23.372;2023-03-13T05:23:45;95639.38;;;5.87;41.20
14393;BME280;7281;42.678;23.372;2023-03-13T05:26:30;95653.28;;;6.05;40.82
14393;BME280;7281;42.678;23.372;2023-03-13T05:29:17;95653.25;;;6.12;39.87
14393;BME280;7281;42.678;23.372;2023-03-13T05:31:56;95649.06;;;6.11;40.25
14393;BME280;7281;42.678;23.372;2023-03-13T05:34:52;95653.19;;;6.18;40.35
14393;BME280;7281;42.678;23.372;2023-03-13T05:37:35;95649.88;;;6.36;40.44
14393;BME280;7281;42.678;23.372;2023-03-13T05:40:21;95657.47;;;6.38;40.73
14393;BME280;7281;42.678;23.372;2023-03-13T05:43:07;95654.25;;;6.42;40.47
14393;BME280;7281;42.678;23.372;2023-03-13T05:45:43;95657.69;;;6.36;40.26
14393;BME280;7281;42.678;23.372;2023-03-13T05:48:21;95655.38;;;6.53;40.14
14393;BME280;7281;42.678;23.372;2023-03-13T05:51:07;95658.09;;;6.64;40.74
14393;BME280;7281;42.678;23.372;2023-03-13T05:54:00;95661.75;;;6.81;39.59
14393;BME280;7281;42.678;23.372;2023-03-13T05:56:56;95663.63;;;6.74;39.55
14393;BME280;7281;42.678;23.372;2023-03-13T05:59:34;95664.00;;;6.78;40.20
14393;BME280;7281;42.678;23.372;2023-03-13T06:02:21;95663.81;;;6.97;40.21
14393;BME280;7281;42.678;23.372;2023-03-13T06:04:49;95664.16;;;7.07;40.53
14393;BME280;7281;42.678;23.372;2023-03-13T06:07:16;95671.13;;;6.89;39.88
14393;BME280;7281;42.678;23.372;2023-03-13T06:09:43;95680.81;;;6.82;40.76
14393;BME280;7281;42.678;23.372;2023-03-13T06:12:10;95675.03;;;6.98;39.97
14393;BME280;7281;42.678;23.372;2023-03-13T06:14:37;95678.34;;;7.11;40.18
14393;BME280;7281;42.678;23.372;2023-03-13T06:17:20;95670.38;;;7.25;40.25
14393;BME280;7281;42.678;23.372;2023-03-13T06:19:47;95672.94;;;7.31;39.59
14393;BME280;7281;42.678;23.372;2023-03-13T06:22:14;95678.00;;;7.26;39.75
14393;BME280;7281;42.678;23.372;2023-03-13T06:24:41;95673.06;;;7.36;40.09
14393;BME280;7281;42.678;23.372;2023-03-13T06:27:10;95669.88;;;7.34;39.83
14393;BME280;7281;42.678;23.372;2023-03-13T06:29:36;95681.25;;;7.22;39.89
14393;BME280;7281;42.678;23.372;2023-03-13T06:32:03;95683.59;;;7.30;39.87
14393;BME280;7281;42.678;23.372;2023-03-13T06:34:30;95682.00;;;7.47;40.10
14393;BME280;7281;42.678;23.372;2023-03-13T06:36:57;95650.19;;;6.53;40.99
14393;BME280;7281;42.678;23.372;2023-03-13T06:39:24;95671.47;;;7.17;39.57
14393;BME280;7281;42.678;23.372;2023-03-13T06:41:51;95655.28;;;7.33;39.77
14393;BME280;7281;42.678;23.372;2023-03-13T06:44:17;95647.38;;;7.40;39.15
14393;BME280;7281;42.678;23.372;2023-03-13T06:46:44;95650.88;;;7.52;39.62
14393;BME280;7281;42.678;23.372;2023-03-13T06:49:12;95653.09;;;7.66;39.48
14393;BME280;7281;42.678;23.372;2023-03-13T06:51:38;95662.13;;;7.82;39.25
14393;BME280;7281;42.678;23.372;2023-03-13T06:54:05;95662.84;;;7.89;40.58
14393;BME280;7281;42.678;23.372;2023-03-13T06:56:32;95669.16;;;7.81;41.01
14393;BME280;7281;42.678;23.372;2023-03-13T06:58:58;95667.25;;;7.88;41.04
14393;BME280;7281;42.678;23.372;2023-03-13T07:01:25;95659.78;;;8.10;40.62
14393;BME280;7281;42.678;23.372;2023-03-13T07:03:52;95657.28;;;8.15;39.17
14393;BME280;7281;42.678;23.372;2023-03-13T07:06:19;95654.75;;;8.27;39.15
14393;BME280;7281;42.678;23.372;2023-03-13T07:08:46;95657.16;;;8.10;38.84
14393;BME280;7281;42.678;23.372;2023-03-13T07:11:13;95649.22;;;7.87;39.11
14393;BME280;7281;42.678;23.372;2023-03-13T07:13:40;95656.00;;;8.24;37.90
14393;BME280;7281;42.678;23.372;2023-03-13T07:16:08;95658.19;;;8.39;38.46
14393;BME280;7281;42.678;23.372;2023-03-13T07:18:35;95655.81;;;8.37;37.66
14393;BME280;7281;42.678;23.372;2023-03-13T07:21:03;95652.53;;;8.42;37.50
14393;BME280;7281;42.678;23.372;2023-03-13T07:23:33;95646.25;;;8.31;37.75
14393;BME280;7281;42.678;23.372;2023-03-13T07:26:01;95651.47;;;8.31;37.71
14393;BME280;7281;42.678;23.372;2023-03-13T07:28:29;95645.03;;;8.45;37.62
14393;BME280;7281;42.678;23.372;2023-03-13T07:31:16;95647.84;;;8.32;37.43
14393;BME280;7281;42.678;23.372;2023-03-13T07:33:43;95656.75;;;8.54;37.48
14393;BME280;7281;42.678;23.372;2023-03-13T07:36:10;95640.66;;;8.57;37.48
14393;BME280;7281;42.678;23.372;2023-03-13T07:38:38;95640.88;;;8.67;37.83
14393;BME280;7281;42.678;23.372;2023-03-13T07:41:05;95643.53;;;8.79;36.87
14393;BME280;7281;42.678;23.372;2023-03-13T07:43:32;95642.72;;;9.01;36.19
14393;BME280;7281;42.678;23.372;2023-03-13T07:46:00;95651.28;;;9.08;37.11
14393;BME280;7281;42.678;23.372;2023-03-13T07:48:28;95643.75;;;9.23;36.73
14393;BME280;7281;42.678;23.372;2023-03-13T07:50:55;95644.41;;;9.31;36.77
14393;BME280;7281;42.678;23.372;2023-03-13T07:53:22;95648.97;;;9.47;36.35
14393;BME280;7281;42.678;23.372;2023-03-13T07:55:59;95648.19;;;9.11;35.97
14393;BME280;7281;42.678;23.372;2023-03-13T07:58:27;95643.16;;;9.45;36.42
14393;BME280;7281;42.678;23.372;2023-03-13T08:00:55;95640.50;;;9.68;36.10
14393;BME280;7281;42.678;23.372;2023-03-13T08:03:22;95625.84;;;9.67;35.81
14393;BME280;7281;42.678;23.372;2023-03-13T08:05:59;95629.16;;;9.51;34.83
14393;BME280;7281;42.678;23.372;2023-03-13T08:08:26;95625.06;;;9.55;35.56
14393;BME280;7281;42.678;23.372;2023-03-13T08:10:53;95630.84;;;9.68;35.17
14393;BME280;7281;42.678;23.372;2023-03-13T08:13:20;95630.59;;;9.70;35.76
14393;BME280;7281;42.678;23.372;2023-03-13T08:15:47;95629.94;;;9.63;35.33
14393;BME280;7281;42.678;23.372;2023-03-13T08:18:14;95626.50;;;9.74;38.21
14393;BME280;7281;42.678;23.372;2023-03-13T08:20:40;95622.63;;;10.16;37.96
14393;BME280;7281;42.678;23.372;2023-03-13T08:23:09;95622.16;;;10.07;35.47
14393;BME280;7281;42.678;23.372;2023-03-13T08:25:36;95624.97;;;10.29;35.91
14393;BME280;7281;42.678;23.372;2023-03-13T08:28:03;95629.28;;;10.68;34.31
14393;BME280;7281;42.678;23.372;2023-03-13T08:30:30;95624.03;;;10.68;34.16
14393;BME280;7281;42.678;23.372;2023-03-13T08:32:57;95623.25;;;10.84;33.80
14393;BME280;7281;42.678;23.372;2023-03-13T08:35:24;95621.25;;;10.91;33.56
14393;BME280;7281;42.678;23.372;2023-03-13T08:37:51;95630.78;;;10.97;33.33
14393;BME280;7281;42.678;23.372;2023-03-13T08:40:17;95634.44;;;10.18;34.02
14393;BME280;7281;42.678;23.372;2023-03-13T08:42:44;95635.00;;;10.65;33.23
14393;BME280;7281;42.678;23.372;2023-03-13T08:45:11;95629.91;;;10.92;33.70
14393;BME280;7281;42.678;23.372;2023-03-13T08:47:38;95624.03;;;11.01;33.36
14393;BME280;7281;42.678;23.372;2023-03-13T08:50:05;95623.53;;;11.04;33.21
14393;BME280;7281;42.678;23.372;2023-03-13T08:52:32;95617.63;;;11.31;33.13
14393;BME280;7281;42.678;23.372;2023-03-13T08:54:59;95611.66;;;11.35;33.32
14393;BME280;7281;42.678;23.372;2023-03-13T08:57:25;95611.84;;;11.50;32.76
14393;BME280;7281;42.678;23.372;2023-03-13T08:59:52;95610.59;;;11.53;32.51
14393;BME280;7281;42.678;23.372;2023-03-13T09:02:19;95602.47;;;11.76;31.85
14393;BME280;7281;42.678;23.372;2023-03-13T09:04:46;95609.38;;;11.82;32.14
14393;BME280;7281;42.678;23.372;2023-03-13T09:07:13;95613.19;;;11.69;31.79
14393;BME280;7281;42.678;23.372;2023-03-13T09:09:40;95612.72;;;11.17;31.63
14393;BME280;7281;42.678;23.372;2023-03-13T09:12:07;95607.47;;;11.56;30.65
14393;BME280;7281;42.678;23.372;2023-03-13T09:14:46;95605.03;;;11.49;30.97
14393;BME280;7281;42.678;23.372;2023-03-13T09:17:14;95610.09;;;11.99;31.26
14393;BME280;7281;42.678;23.372;2023-03-13T09:19:41;95597.06;;;11.82;31.23
14393;BME280;7281;42.678;23.372;2023-03-13T09:22:25;95590.38;;;12.23;29.62
14393;BME280;7281;42.678;23.372;2023-03-13T09:24:51;95592.03;;;12.29;29.87
14393;BME280;7281;42.678;23.372;2023-03-13T09:27:18;95597.09;;;12.67;30.48
14393;BME280;7281;42.678;23.372;2023-03-13T09:29:45;95594.88;;;12.86;29.90
14393;BME280;7281;42.678;23.372;2023-03-13T09:32:12;95591.75;;;13.26;30.47
14393;BME280;7281;42.678;23.372;2023-03-13T09:34:38;95592.66;;;13.51;30.22
14393;BME280;7281;42.678;23.372;2023-03-13T09:37:05;95603.78;;;13.16;29.29
14393;BME280;7281;42.678;23.372;2023-03-13T09:39:33;95597.41;;;13.07;29.52
14393;BME280;7281;42.678;23.372;2023-03-13T09:44:39;95586.75;;;13.81;28.60
14393;BME280;7281;42.678;23.372;2023-03-13T09:47:12;95585.78;;;14.12;29.18
14393;BME280;7281;42.678;23.372;2023-03-13T09:52:38;95586.28;;;13.99;28.57
14393;BME280;7281;42.678;23.372;2023-03-13T09:55:13;95582.94;;;13.52;27.91
14393;BME280;7281;42.678;23.372;2023-03-13T10:00:11;95580.66;;;13.70;27.41
14393;BME280;7281;42.678;23.372;2023-03-13T10:02:42;95578.31;;;13.89;28.49
14393;BME280;7281;42.678;23.372;2023-03-13T10:05:15;95582.69;;;14.40;28.12
14393;BME280;7281;42.678;23.372;2023-03-13T10:07:42;95582.03;;;13.31;27.59
14393;BME280;7281;42.678;23.372;2023-03-13T10:10:11;95571.34;;;12.69;28.46
14393;BME280;7281;42.678;23.372;2023-03-13T10:12:46;95560.34;;;13.71;29.47
14393;BME280;7281;42.678;23.372;2023-03-13T10:17:50;95553.19;;;14.63;28.38
14393;BME280;7281;42.678;23.372;2023-03-13T10:20:26;95543.63;;;14.97;28.18
14393;BME280;7281;42.678;23.372;2023-03-13T10:22:55;95537.56;;;15.07;27.51
14393;BME280;7281;42.678;23.372;2023-03-13T10:25:26;95546.81;;;14.29;26.57
14393;BME280;7281;42.678;23.372;2023-03-13T10:27:55;95529.66;;;14.92;27.91
14393;BME280;7281;42.678;23.372;2023-03-13T10:30:23;95519.88;;;15.02;27.83
14393;BME280;7281;42.678;23.372;2023-03-13T10:33:00;95516.69;;;15.00;27.73
14393;BME280;7281;42.678;23.372;2023-03-13T10:35:38;95507.91;;;15.45;27.54
14393;BME280;7281;42.678;23.372;2023-03-13T10:38:09;95513.72;;;15.32;27.48
14393;BME280;7281;42.678;23.372;2023-03-13T10:40:36;95517.72;;;15.19;26.98
14393;BME280;7281;42.678;23.372;2023-03-13T10:43:04;95505.09;;;15.01;26.11
14393;BME280;7281;42.678;23.372;2023-03-13T10:45:33;95496.88;;;15.13;26.24
14393;BME280;7281;42.678;23.372;2023-03-13T10:48:03;95493.22;;;14.99;26.58
14393;BME280;7281;42.678;23.372;2023-03-13T10:50:36;95502.00;;;14.64;27.08
14393;BME280;7281;42.678;23.372;2023-03-13T10:53:06;95501.47;;;14.57;27.04
14393;BME280;7281;42.678;23.372;2023-03-13T10:55:34;95487.19;;;14.83;26.45
14393;BME280;7281;42.678;23.372;2023-03-13T10:58:01;95483.97;;;15.06;27.65
14393;BME280;7281;42.678;23.372;2023-03-13T11:00:38;95489.31;;;14.71;27.33
14393;BME280;7281;42.678;23.372;2023-03-13T11:03:05;95484.50;;;15.08;28.06
14393;BME280;7281;42.678;23.372;2023-03-13T11:05:39;95475.16;;;15.41;27.35
14393;BME280;7281;42.678;23.372;2023-03-13T11:08:18;95478.13;;;15.19;26.59
14393;BME280;7281;42.678;23.372;2023-03-13T11:11:02;95472.50;;;15.46;27.49
14393;BME280;7281;42.678;23.372;2023-03-13T11:13:33;95455.31;;;15.39;27.31
14393;BME280;7281;42.678;23.372;2023-03-13T11:16:21;95451.31;;;15.95;27.26
14393;BME280;7281;42.678;23.372;2023-03-13T11:19:16;95460.56;;;14.75;26.66
14393;BME280;7281;42.678;23.372;2023-03-13T11:24:06;95442.41;;;15.91;26.66
14393;BME280;7281;42.678;23.372;2023-03-13T11:26:41;95446.81;;;16.34;26.18
14393;BME280;7281;42.678;23.372;2023-03-13T11:29:30;95441.91;;;16.17;26.36
14393;BME280;7281;42.678;23.372;2023-03-13T11:32:01;95429.50;;;16.13;25.29
14393;BME280;7281;42.678;23.372;2023-03-13T11:34:35;95436.81;;;16.26;25.42
14393;BME280;7281;42.678;23.372;2023-03-13T11:37:10;95431.41;;;16.41;26.09
14393;BME280;7281;42.678;23.372;2023-03-13T11:52:37;95393.94;;;17.29;25.59
14393;BME280;7281;42.678;23.372;2023-03-13T12:00:16;95385.81;;;17.01;24.39
14393;BME280;7281;42.678;23.372;2023-03-13T12:02:47;95381.53;;;17.48;25.33
14393;BME280;7281;42.678;23.372;2023-03-13T12:05:16;95363.97;;;17.70;25.09
14393;BME280;7281;42.678;23.372;2023-03-13T12:10:36;95362.38;;;18.20;24.47
14393;BME280;7281;42.678;23.372;2023-03-13T12:13:13;95351.59;;;18.30;23.29
14393;BME280;7281;42.678;23.372;2023-03-13T12:15:55;95360.28;;;17.10;23.17
14393;BME280;7281;42.678;23.372;2023-03-13T12:24:08;95337.53;;;17.84;23.68
14393;BME280;7281;42.678;23.372;2023-03-13T12:26:50;95327.47;;;18.86;23.71
14393;BME280;7281;42.678;23.372;2023-03-13T12:29:11;95334.69;;;19.48;23.24
14393;BME280;7281;42.678;23.372;2023-03-13T12:31:44;95331.72;;;19.50;22.81
14393;BME280;7281;42.678;23.372;2023-03-13T12:34:29;95333.06;;;19.83;22.91
14393;BME280;7281;42.678;23.372;2023-03-13T12:39:34;95320.59;;;20.14;21.52
14393;BME280;7281;42.678;23.372;2023-03-13T12:42:09;95316.09;;;20.45;22.02
14393;BME280;7281;42.678;23.372;2023-03-13T12:44:39;95319.91;;;20.61;21.71
14393;BME280;7281;42.678;23.372;2023-03-13T12:47:07;95324.56;;;20.47;21.81
14393;BME280;7281;42.678;23.372;2023-03-13T12:52:16;95321.38;;;20.67;21.01
14393;BME280;7281;42.678;23.372;2023-03-13T12:55:00;95325.16;;;20.44;20.46
14393;BME280;7281;42.678;23.372;2023-03-13T13:00:16;95343.81;;;17.13;23.57
14393;BME280;7281;42.678;23.372;2023-03-13T13:02:44;95322.34;;;19.03;22.60
14393;BME280;7281;42.678;23.372;2023-03-13T13:05:18;95329.44;;;19.57;21.19
14393;BME280;7281;42.678;23.372;2023-03-13T13:07:52;95335.13;;;19.86;21.08
14393;BME280;7281;42.678;23.372;2023-03-13T13:10:20;95332.09;;;20.01;20.72
14393;BME280;7281;42.678;23.372;2023-03-13T13:13:15;95324.00;;;20.06;20.73
14393;BME280;7281;42.678;23.372;2023-03-13T13:15:34;95334.50;;;19.45;21.23
14393;BME280;7281;42.678;23.372;2023-03-13T13:18:12;95324.72;;;20.20;21.18
14393;BME280;7281;42.678;23.372;2023-03-13T13:20:44;95325.03;;;20.49;20.85
14393;BME280;7281;42.678;23.372;2023-03-13T13:23:27;95325.44;;;20.73;20.61
14393;BME280;7281;42.678;23.372;2023-03-13T13:28:44;95306.66;;;21.69;20.25
14393;BME280;7281;42.678;23.372;2023-03-13T13:33:57;95298.47;;;21.74;20.11
14393;BME280;7281;42.678;23.372;2023-03-13T13:36:27;95302.88;;;20.71;20.84
14393;BME280;7281;42.678;23.372;2023-03-13T13:38:54;95303.50;;;21.33;20.65
14393;BME280;7281;42.678;23.372;2023-03-13T13:41:23;95298.16;;;21.50;20.85
14393;BME280;7281;42.678;23.372;2023-03-13T13:46:42;95291.56;;;22.62;19.32
14393;BME280;7281;42.678;23.372;2023-03-13T13:49:14;95282.41;;;23.00;18.49
14393;BME280;7281;42.678;23.372;2023-03-13T13:52:16;95283.63;;;22.82;19.16
14393;BME280;7281;42.678;23.372;2023-03-13T13:57:23;95278.63;;;23.01;19.05
14393;BME280;7281;42.678;23.372;2023-03-13T14:00:33;95278.97;;;23.21;18.92
14393;BME280;7281;42.678;23.372;2023-03-13T14:02:48;95273.41;;;23.05;18.98
14393;BME280;7281;42.678;23.372;2023-03-13T14:05:22;95275.75;;;23.06;18.63
14393;BME280;7281;42.678;23.372;2023-03-13T14:12:53;95274.19;;;23.05;18.36
14393;BME280;7281;42.678;23.372;2023-03-13T14:15:24;95276.00;;;22.93;18.15
14393;BME280;7281;42.678;23.372;2023-03-13T14:17:52;95268.19;;;23.08;18.33
14393;BME280;7281;42.678;23.372;2023-03-13T14:20:27;95266.88;;;22.94;18.18
14393;BME280;7281;42.678;23.372;2023-03-13T14:22:55;95271.53;;;22.76;18.40
14393;BME280;7281;42.678;23.372;2023-03-13T14:25:26;95266.63;;;23.37;18.04
14393;BME280;7281;42.678;23.372;2023-03-13T14:27:53;95271.78;;;23.12;18.40
14393;BME280;7281;42.678;23.372;2023-03-13T14:30:21;95268.66;;;22.81;18.53
14393;BME280;7281;42.678;23.372;2023-03-13T14:32:49;95266.19;;;22.76;19.44
14393;BME280;7281;42.678;23.372;2023-03-13T14:35:17;95266.41;;;22.08;19.27
14393;BME280;7281;42.678;23.372;2023-03-13T14:37:51;95263.63;;;21.96;19.80
14393;BME280;7281;42.678;23.372;2023-03-13T14:40:20;95267.34;;;22.12;19.28
14393;BME280;7281;42.678;23.372;2023-03-13T14:42:49;95277.16;;;21.05;19.95
14393;BME280;7281;42.678;23.372;2023-03-13T14:45:39;95270.22;;;21.04;20.44